sensor_id;sensor_type;location;lat;lon;timestamp;pressure;altitude;pressure_sealevel;temperature;humidity
78198;BME280;67472;51.554;7.812;2023-03-23T00:02:13;99571.03;;;12.62;100.00
78198;BME280;67472;51.554;7.812;2023-03-23T00:04:59;99562.25;;;12.53;100.00
78198;BME280;67472;51.554;7.812;2023-03-23T00:07:45;99568.03;;;12.57;100.00
78198;BME280;67472;51.554;7.812;2023-03-23T00:10:30;99553.16;;;12.48;100.00
78198;BME280;67472;51.554;7.812;2023-03-23T00:13:18;99549.00;;;12.45;100.00
78198;BME280;67472;51.554;7.812;2023-03-23T00:16:05;99553.63;;;12.51;100.00
78198;BME280;67472;51.554;7.812;2023-03-23T00:18:51;99563.91;;;12.46;100.00
78198;BME280;67472;51.554;7.812;2023-03-23T00:21:40;99558.09;;;12.42;100.00
78198;BME280;67472;51.554;7.812;2023-03-23T00:24:26;99545.03;;;12.33;100.00
78198;BME280;67472;51.554;7.812;2023-03-23T00:27:11;99543.19;;;12.33;100.00
78198;BME280;67472;51.554;7.812;2023-03-23T00:30:00;99544.38;;;12.47;100.00
78198;BME280;67472;51.554;7.812;2023-03-23T00:32:45;99535.09;;;12.35;100.00
78198;BME280;67472;51.554;7.812;2023-03-23T00:35:30;99533.13;;;12.37;100.00
78198;BME280;67472;51.554;7.812;2023-03-23T00:38:20;99536.94;;;12.51;100.00
78198;BME280;67472;51.554;7.812;2023-03-23T00:41:05;99535.25;;;12.33;100.00
78198;BME280;67472;51.554;7.812;2023-03-23T00:43:50;99532.28;;;12.36;100.00
78198;BME280;67472;51.554;7.812;2023-03-23T00:46:35;99523.53;;;12.44;100.00
78198;BME280;67472;51.554;7.812;2023-03-23T00:49:29;99525.16;;;12.37;100.00
78198;BME280;67472;51.554;7.812;2023-03-23T00:52:14;99523.03;;;12.32;100.00
78198;BME280;67472;51.554;7.812;2023-03-23T00:54:59;99528.34;;;12.24;100.00
78198;BME280;67472;51.554;7.812;2023-03-23T00:57:44;99517.22;;;12.29;100.00
78198;BME280;67472;51.554;7.812;2023-03-23T01:00:29;99519.88;;;12.29;100.00
78198;BME280;67472;51.554;7.812;2023-03-23T01:03:15;99510.75;;;12.39;100.00
78198;BME280;67472;51.554;7.812;2023-03-23T01:06:08;99516.91;;;12.32;100.00
78198;BME280;67472;51.554;7.812;2023-03-23T01:08:58;99513.09;;;12.18;100.00
78198;BME280;67472;51.554;7.812;2023-03-23T01:11:44;99528.31;;;12.32;100.00
78198;BME280;67472;51.554;7.812;2023-03-23T01:14:29;99522.53;;;12.29;100.00
78198;BME280;67472;51.554;7.812;2023-03-23T01:17:14;99519.56;;;12.32;100.00
78198;BME280;67472;51.554;7.812;2023-03-23T01:19:59;99509.28;;;12.37;100.00
78198;BME280;67472;51.554;7.812;2023-03-23T01:22:44;99507.28;;;12.47;100.00
78198;BME280;67472;51.554;7.812;2023-03-23T01:25:31;99501.78;;;12.57;100.00
78198;BME280;67472;51.554;7.812;2023-03-23T01:28:16;99501.66;;;12.50;100.00
78198;BME280;67472;51.554;7.812;2023-03-23T01:31:06;99502.63;;;12.65;100.00
78198;BME280;67472;51.554;7.812;2023-03-23T01:33:54;99498.59;;;12.77;100.00
78198;BME280;67472;51.554;7.812;2023-03-23T01:36:40;99499.13;;;12.73;100.00
78198;BME280;67472;51.554;7.812;2023-03-23T01:39:25;99492.63;;;12.83;100.00
78198;BME280;67472;51.554;7.812;2023-03-23T01:42:10;99493.34;;;12.69;100.00
78198;BME280;67472;51.554;7.812;2023-03-23T01:48:05;99514.03;;;12.82;100.00
78198;BME280;67472;51.554;7.812;2023-03-23T01:53:43;99532.13;;;12.46;100.00
78198;BME280;67472;51.554;7.812;2023-03-23T01:56:34;99535.75;;;12.45;100.00
78198;BME280;67472;51.554;7.812;2023-03-23T01:59:24;99519.22;;;12.27;100.00
78198;BME280;67472;51.554;7.812;2023-03-23T02:02:27;99527.31;;;12.25;100.00
78198;BME280;67472;51.554;7.812;2023-03-23T02:05:19;99526.66;;;12.23;100.00
78198;BME280;67472;51.554;7.812;2023-03-23T02:08:07;99529.31;;;12.07;100.00
78198;BME280;67472;51.554;7.812;2023-03-23T02:10:54;99529.78;;;12.03;100.00
78198;BME280;67472;51.554;7.812;2023-03-23T02:13:39;99542.19;;;11.94;100.00
78198;BME280;67472;51.554;7.812;2023-03-23T02:19:56;99557.03;;;11.79;100.00
78198;BME280;67472;51.554;7.812;2023-03-23T02:29:08;99506.97;;;11.77;100.00
78198;BME280;67472;51.554;7.812;2023-03-23T02:35:05;99453.53;;;11.82;100.00
78198;BME280;67472;51.554;7.812;2023-03-23T02:37:57;99456.38;;;11.80;100.00
78198;BME280;67472;51.554;7.812;2023-03-23T02:40:47;99463.78;;;11.93;100.00
78198;BME280;67472;51.554;7.812;2023-03-23T02:43:38;99465.47;;;11.86;100.00
78198;BME280;67472;51.554;7.812;2023-03-23T02:46:25;99467.44;;;11.84;100.00
78198;BME280;67472;51.554;7.812;2023-03-23T02:49:12;99469.25;;;11.83;100.00
78198;BME280;67472;51.554;7.812;2023-03-23T02:52:04;99464.81;;;11.92;100.00
78198;BME280;67472;51.554;7.812;2023-03-23T02:54:51;99459.84;;;11.89;100.00
78198;BME280;67472;51.554;7.812;2023-03-23T02:57:38;99466.28;;;11.95;100.00
78198;BME280;67472;51.554;7.812;2023-03-23T03:00:23;99452.91;;;12.04;100.00
78198;BME280;67472;51.554;7.812;2023-03-23T03:03:15;99459.84;;;11.81;100.00
78198;BME280;67472;51.554;7.812;2023-03-23T03:09:14;99457.34;;;11.79;100.00
78198;BME280;67472;51.554;7.812;2023-03-23T03:12:17;99456.19;;;11.90;100.00
78198;BME280;67472;51.554;7.812;2023-03-23T03:18:03;99439.81;;;12.03;100.00
78198;BME280;67472;51.554;7.812;2023-03-23T03:20:54;99435.69;;;12.00;100.00
78198;BME280;67472;51.554;7.812;2023-03-23T03:23:44;99427.75;;;11.92;100.00
78198;BME280;67472;51.554;7.812;2023-03-23T03:26:31;99422.78;;;11.89;100.00
78198;BME280;67472;51.554;7.812;2023-03-23T03:29:37;99427.41;;;11.87;100.00
78198;BME280;67472;51.554;7.812;2023-03-23T03:32:39;99439.31;;;11.83;100.00
78198;BME280;67472;51.554;7.812;2023-03-23T03:35:25;99437.66;;;11.74;100.00
78198;BME280;67472;51.554;7.812;2023-03-23T03:38:11;99436.84;;;11.73;100.00
78198;BME280;67472;51.554;7.812;2023-03-23T03:40:57;99438.50;;;11.82;100.00
78198;BME280;67472;51.554;7.812;2023-03-23T03:43:42;99436.00;;;11.73;100.00
78198;BME280;67472;51.554;7.812;2023-03-23T03:46:27;99431.38;;;11.83;100.00
78198;BME280;67472;51.554;7.812;2023-03-23T03:49:15;99434.38;;;11.80;100.00
78198;BME280;67472;51.554;7.812;2023-03-23T03:52:01;99431.72;;;11.88;100.00
78198;BME280;67472;51.554;7.812;2023-03-23T03:54:55;99410.72;;;11.86;100.00
78198;BME280;67472;51.554;7.812;2023-03-23T03:57:41;99423.75;;;11.96;100.00
78198;BME280;67472;51.554;7.812;2023-03-23T04:00:52;99421.47;;;12.01;100.00
78198;BME280;67472;51.554;7.812;2023-03-23T04:03:40;99421.81;;;11.98;100.00
78198;BME280;67472;51.554;7.812;2023-03-23T04:06:44;99438.34;;;12.00;100.00
78198;BME280;67472;51.554;7.812;2023-03-23T04:09:29;99426.25;;;11.98;100.00
78198;BME280;67472;51.554;7.812;2023-03-23T04:12:16;99429.06;;;11.88;100.00
78198;BME280;67472;51.554;7.812;2023-03-23T04:15:16;99424.09;;;11.93;100.00
78198;BME280;67472;51.554;7.812;2023-03-23T04:18:01;99423.28;;;11.93;100.00
78198;BME280;67472;51.554;7.812;2023-03-23T04:20:49;99421.44;;;11.93;100.00
78198;BME280;67472;51.554;7.812;2023-03-23T04:23:37;99420.47;;;11.94;100.00
78198;BME280;67472;51.554;7.812;2023-03-23T04:26:26;99424.44;;;12.06;100.00
78198;BME280;67472;51.554;7.812;2023-03-23T04:29:15;99418.81;;;12.01;100.00
78198;BME280;67472;51.554;7.812;2023-03-23T04:32:18;99424.13;;;12.01;100.00
78198;BME280;67472;51.554;7.812;2023-03-23T04:35:10;99422.28;;;12.10;100.00
78198;BME280;67472;51.554;7.812;2023-03-23T04:38:00;99421.63;;;12.00;100.00
78198;BME280;67472;51.554;7.812;2023-03-23T04:40:47;99428.06;;;12.05;100.00
78198;BME280;67472;51.554;7.812;2023-03-23T04:43:50;99419.63;;;12.02;100.00
78198;BME280;67472;51.554;7.812;2023-03-23T04:47:01;99417.00;;;11.94;100.00
78198;BME280;67472;51.554;7.812;2023-03-23T04:49:48;99420.13;;;11.97;100.00
78198;BME280;67472;51.554;7.812;2023-03-23T04:52:55;99424.13;;;12.01;100.00
78198;BME280;67472;51.554;7.812;2023-03-23T04:55:41;99420.44;;;12.02;100.00
78198;BME280;67472;51.554;7.812;2023-03-23T04:58:31;99415.00;;;12.04;100.00
78198;BME280;67472;51.554;7.812;2023-03-23T05:01:39;99410.53;;;12.12;100.00
78198;BME280;67472;51.554;7.812;2023-03-23T05:04:34;99402.09;;;12.09;100.00
78198;BME280;67472;51.554;7.812;2023-03-23T05:07:33;99416.31;;;12.08;100.00
78198;BME280;67472;51.554;7.812;2023-03-23T05:10:18;99416.78;;;12.19;100.00
78198;BME280;67472;51.554;7.812;2023-03-23T05:13:04;99411.69;;;12.10;100.00
78198;BME280;67472;51.554;7.812;2023-03-23T05:15:49;99423.44;;;12.07;100.00
78198;BME280;67472;51.554;7.812;2023-03-23T05:18:35;99430.22;;;12.02;100.00
78198;BME280;67472;51.554;7.812;2023-03-23T05:21:24;99433.22;;;12.07;100.00
78198;BME280;67472;51.554;7.812;2023-03-23T05:24:12;99430.22;;;12.02;100.00
78198;BME280;67472;51.554;7.812;2023-03-23T05:27:01;99442.44;;;12.11;100.00
78198;BME280;67472;51.554;7.812;2023-03-23T05:29:52;99437.84;;;11.97;100.00
78198;BME280;67472;51.554;7.812;2023-03-23T05:32:39;99448.25;;;12.06;100.00
78198;BME280;67472;51.554;7.812;2023-03-23T05:35:40;99449.75;;;12.01;100.00
78198;BME280;67472;51.554;7.812;2023-03-23T05:38:25;99438.97;;;12.02;100.00
78198;BME280;67472;51.554;7.812;2023-03-23T05:41:12;99436.19;;;12.04;100.00
78198;BME280;67472;51.554;7.812;2023-03-23T05:44:00;99451.06;;;11.97;100.00
78198;BME280;67472;51.554;7.812;2023-03-23T05:46:52;99445.59;;;12.06;100.00
78198;BME280;67472;51.554;7.812;2023-03-23T05:49:37;99438.31;;;12.08;100.00
78198;BME280;67472;51.554;7.812;2023-03-23T05:52:24;99447.41;;;12.14;100.00
78198;BME280;67472;51.554;7.812;2023-03-23T05:55:11;99445.09;;;12.11;100.00
78198;BME280;67472;51.554;7.812;2023-03-23T05:57:59;99450.53;;;12.25;100.00
78198;BME280;67472;51.554;7.812;2023-03-23T06:00:51;99454.84;;;12.26;100.00
78198;BME280;67472;51.554;7.812;2023-03-23T06:03:42;99453.19;;;12.25;100.00
78198;BME280;67472;51.554;7.812;2023-03-23T06:06:39;99464.59;;;12.34;100.00
78198;BME280;67472;51.554;7.812;2023-03-23T06:09:28;99454.34;;;12.31;100.00
78198;BME280;67472;51.554;7.812;2023-03-23T06:12:40;99444.91;;;12.28;100.00
78198;BME280;67472;51.554;7.812;2023-03-23T06:15:28;99459.31;;;12.26;100.00
78198;BME280;67472;51.554;7.812;2023-03-23T06:18:18;99461.97;;;12.26;100.00
78198;BME280;67472;51.554;7.812;2023-03-23T06:21:23;99464.78;;;12.32;100.00
78198;BME280;67472;51.554;7.812;2023-03-23T06:24:15;99467.25;;;12.26;100.00
78198;BME280;67472;51.554;7.812;2023-03-23T06:27:00;99460.13;;;12.34;100.00
78198;BME280;67472;51.554;7.812;2023-03-23T06:29:45;99471.38;;;12.44;100.00
78198;BME280;67472;51.554;7.812;2023-03-23T06:32:32;99455.84;;;12.41;100.00
78198;BME280;67472;51.554;7.812;2023-03-23T06:35:18;99466.25;;;12.35;100.00
78198;BME280;67472;51.554;7.812;2023-03-23T06:38:31;99476.50;;;12.46;100.00
78198;BME280;67472;51.554;7.812;2023-03-23T06:41:16;99473.03;;;12.37;100.00
78198;BME280;67472;51.554;7.812;2023-03-23T06:44:01;99482.16;;;12.35;100.00
78198;BME280;67472;51.554;7.812;2023-03-23T06:46:49;99480.97;;;12.45;100.00
78198;BME280;67472;51.554;7.812;2023-03-23T06:49:38;99492.38;;;12.46;100.00
78198;BME280;67472;51.554;7.812;2023-03-23T06:52:32;99494.22;;;12.54;100.00
78198;BME280;67472;51.554;7.812;2023-03-23T06:55:18;99486.09;;;12.47;100.00
78198;BME280;67472;51.554;7.812;2023-03-23T06:58:03;99480.97;;;12.54;100.00
78198;BME280;67472;51.554;7.812;2023-03-23T07:00:48;99489.41;;;12.65;100.00
78198;BME280;67472;51.554;7.812;2023-03-23T07:03:37;99483.88;;;12.75;100.00
78198;BME280;67472;51.554;7.812;2023-03-23T07:06:23;99474.41;;;12.88;100.00
78198;BME280;67472;51.554;7.812;2023-03-23T07:09:14;99468.63;;;12.85;100.00
78198;BME280;67472;51.554;7.812;2023-03-23T07:12:00;99480.19;;;12.92;100.00
78198;BME280;67472;51.554;7.812;2023-03-23T07:14:52;99465.44;;;12.89;100.00
78198;BME280;67472;51.554;7.812;2023-03-23T07:17:38;99474.19;;;12.98;100.00
78198;BME280;67472;51.554;7.812;2023-03-23T07:20:47;99477.53;;;13.00;100.00
78198;BME280;67472;51.554;7.812;2023-03-23T07:23:33;99478.16;;;13.10;100.00
78198;BME280;67472;51.554;7.812;2023-03-23T07:26:24;99469.03;;;13.04;100.00
78198;BME280;67472;51.554;7.812;2023-03-23T07:29:13;99473.25;;;13.30;100.00
78198;BME280;67472;51.554;7.812;2023-03-23T07:32:02;99461.91;;;13.44;100.00
78198;BME280;67472;51.554;7.812;2023-03-23T07:34:47;99471.22;;;13.40;100.00
78198;BME280;67472;51.554;7.812;2023-03-23T07:37:42;99478.78;;;13.51;100.00
78198;BME280;67472;51.554;7.812;2023-03-23T07:40:28;99460.50;;;13.56;100.00
78198;BME280;67472;51.554;7.812;2023-03-23T07:43:18;99469.22;;;13.42;100.00
78198;BME280;67472;51.554;7.812;2023-03-23T07:46:38;99476.69;;;13.38;100.00
78198;BME280;67472;51.554;7.812;2023-03-23T07:49:32;99479.00;;;13.41;100.00
78198;BME280;67472;51.554;7.812;2023-03-23T07:52:36;99481.69;;;13.33;100.00
78198;BME280;67472;51.554;7.812;2023-03-23T07:55:24;99483.97;;;13.44;100.00
78198;BME280;67472;51.554;7.812;2023-03-23T07:58:29;99480.25;;;13.53;100.00
78198;BME280;67472;51.554;7.812;2023-03-23T08:01:15;99466.91;;;13.39;100.00
78198;BME280;67472;51.554;7.812;2023-03-23T08:04:05;99477.78;;;13.52;100.00
78198;BME280;67472;51.554;7.812;2023-03-23T08:07:04;99477.19;;;13.42;100.00
78198;BME280;67472;51.554;7.812;2023-03-23T08:09:58;99483.25;;;13.50;100.00
78198;BME280;67472;51.554;7.812;2023-03-23T08:13:13;99473.06;;;13.62;100.00
78198;BME280;67472;51.554;7.812;2023-03-23T08:16:09;99472.25;;;13.62;100.00
78198;BME280;67472;51.554;7.812;2023-03-23T08:19:24;99471.91;;;13.65;100.00
78198;BME280;67472;51.554;7.812;2023-03-23T08:22:30;99470.00;;;13.73;100.00
78198;BME280;67472;51.554;7.812;2023-03-23T08:25:42;99476.84;;;13.68;100.00
78198;BME280;67472;51.554;7.812;2023-03-23T08:28:51;99482.69;;;13.86;100.00
78198;BME280;67472;51.554;7.812;2023-03-23T08:31:42;99481.75;;;13.79;100.00
78198;BME280;67472;51.554;7.812;2023-03-23T08:34:52;99485.06;;;13.81;100.00
78198;BME280;67472;51.554;7.812;2023-03-23T08:37:56;99476.75;;;13.84;100.00
78198;BME280;67472;51.554;7.812;2023-03-23T08:41:02;99476.41;;;13.87;100.00
78198;BME280;67472;51.554;7.812;2023-03-23T08:43:48;99471.38;;;13.92;100.00
78198;BME280;67472;51.554;7.812;2023-03-23T08:46:52;99472.03;;;13.94;100.00
78198;BME280;67472;51.554;7.812;2023-03-23T08:50:13;99470.94;;;14.03;100.00
78198;BME280;67472;51.554;7.812;2023-03-23T08:53:37;99463.19;;;14.01;100.00
78198;BME280;67472;51.554;7.812;2023-03-23T08:56:40;99464.69;;;14.19;100.00
78198;BME280;67472;51.554;7.812;2023-03-23T08:59:50;99462.22;;;14.32;100.00
78198;BME280;67472;51.554;7.812;2023-03-23T09:03:11;99464.06;;;14.31;100.00
78198;BME280;67472;51.554;7.812;2023-03-23T09:06:14;99480.41;;;14.43;100.00
78198;BME280;67472;51.554;7.812;2023-03-23T09:09:04;99467.06;;;14.51;100.00
78198;BME280;67472;51.554;7.812;2023-03-23T09:11:54;99470.09;;;14.48;100.00
78198;BME280;67472;51.554;7.812;2023-03-23T09:14:38;99481.53;;;14.63;100.00
78198;BME280;67472;51.554;7.812;2023-03-23T09:17:23;99490.34;;;14.63;100.00
78198;BME280;67472;51.554;7.812;2023-03-23T09:20:09;99481.84;;;14.68;100.00
78198;BME280;67472;51.554;7.812;2023-03-23T09:22:57;99480.44;;;14.72;100.00
78198;BME280;67472;51.554;7.812;2023-03-23T09:25:42;99481.50;;;14.86;100.00
78198;BME280;67472;51.554;7.812;2023-03-23T09:28:28;99474.88;;;14.82;100.00
78198;BME280;67472;51.554;7.812;2023-03-23T09:31:13;99476.81;;;14.88;100.00
78198;BME280;67472;51.554;7.812;2023-03-23T09:33:59;99481.91;;;15.04;100.00
78198;BME280;67472;51.554;7.812;2023-03-23T09:36:45;99484.94;;;15.01;100.00
78198;BME280;67472;51.554;7.812;2023-03-23T09:39:31;99492.84;;;14.80;100.00
78198;BME280;67472;51.554;7.812;2023-03-23T09:42:38;99488.81;;;14.84;100.00
78198;BME280;67472;51.554;7.812;2023-03-23T09:51:56;99490.63;;;14.83;100.00
78198;BME280;67472;51.554;7.812;2023-03-23T09:54:46;99489.63;;;14.69;100.00
78198;BME280;67472;51.554;7.812;2023-03-23T10:00:39;99504.69;;;14.77;100.00
78198;BME280;67472;51.554;7.812;2023-03-23T10:03:32;99497.44;;;14.71;100.00
78198;BME280;67472;51.554;7.812;2023-03-23T10:06:21;99505.22;;;14.73;100.00
78198;BME280;67472;51.554;7.812;2023-03-23T10:09:12;99509.34;;;14.75;100.00
78198;BME280;67472;51.554;7.812;2023-03-23T10:15:10;99502.09;;;14.84;100.00
78198;BME280;67472;51.554;7.812;2023-03-23T10:18:03;99496.78;;;14.98;100.00
78198;BME280;67472;51.554;7.812;2023-03-23T10:20:53;99503.84;;;15.20;100.00
78198;BME280;67472;51.554;7.812;2023-03-23T10:29:46;99484.41;;;15.56;100.00
78198;BME280;67472;51.554;7.812;2023-03-23T10:32:47;99478.03;;;15.36;100.00
78198;BME280;67472;51.554;7.812;2023-03-23T10:35:41;99496.66;;;15.36;100.00
78198;BME280;67472;51.554;7.812;2023-03-23T10:38:41;99492.41;;;15.41;100.00
78198;BME280;67472;51.554;7.812;2023-03-23T10:41:28;99489.97;;;15.25;100.00
78198;BME280;67472;51.554;7.812;2023-03-23T10:44:19;99511.34;;;15.32;100.00
78198;BME280;67472;51.554;7.812;2023-03-23T10:47:08;99511.84;;;15.06;100.00
78198;BME280;67472;51.554;7.812;2023-03-23T10:49:59;99526.13;;;14.76;100.00
78198;BME280;67472;51.554;7.812;2023-03-23T10:52:46;99532.63;;;14.73;100.00
78198;BME280;67472;51.554;7.812;2023-03-23T10:55:37;99549.53;;;14.57;100.00
78198;BME280;67472;51.554;7.812;2023-03-23T10:58:27;99624.44;;;13.77;100.00
78198;BME280;67472;51.554;7.812;2023-03-23T11:01:19;99659.41;;;13.01;100.00
78198;BME280;67472;51.554;7.812;2023-03-23T11:04:12;99669.69;;;12.48;100.00
78198;BME280;67472;51.554;7.812;2023-03-23T11:07:00;99684.69;;;12.23;100.00
78198;BME280;67472;51.554;7.812;2023-03-23T11:09:57;99687.88;;;11.84;100.00
78198;BME280;67472;51.554;7.812;2023-03-23T11:12:45;99695.78;;;11.51;100.00
78198;BME280;67472;51.554;7.812;2023-03-23T11:15:40;99702.53;;;11.45;100.00
78198;BME280;67472;51.554;7.812;2023-03-23T11:18:43;99714.81;;;11.28;100.00
78198;BME280;67472;51.554;7.812;2023-03-23T11:21:28;99725.53;;;11.27;100.00
78198;BME280;67472;51.554;7.812;2023-03-23T11:24:13;99726.06;;;11.30;100.00
78198;BME280;67472;51.554;7.812;2023-03-23T11:26:59;99723.38;;;11.22;100.00
78198;BME280;67472;51.554;7.812;2023-03-23T11:29:59;99718.78;;;11.32;100.00
78198;BME280;67472;51.554;7.812;2023-03-23T11:32:45;99722.44;;;11.57;100.00
78198;BME280;67472;51.554;7.812;2023-03-23T11:35:30;99725.91;;;11.58;100.00
78198;BME280;67472;51.554;7.812;2023-03-23T11:38:21;99727.59;;;11.67;100.00
78198;BME280;67472;51.554;7.812;2023-03-23T11:41:12;99735.44;;;11.51;100.00
78198;BME280;67472;51.554;7.812;2023-03-23T11:43:57;99748.09;;;11.65;100.00
78198;BME280;67472;51.554;7.812;2023-03-23T11:46:52;99743.88;;;11.72;100.00
78198;BME280;67472;51.554;7.812;2023-03-23T11:53:18;99741.38;;;11.70;100.00
78198;BME280;67472;51.554;7.812;2023-03-23T11:59:34;99730.09;;;11.68;100.00
78198;BME280;67472;51.554;7.812;2023-03-23T12:05:32;99748.03;;;11.57;100.00
78198;BME280;67472;51.554;7.812;2023-03-23T12:23:18;99755.00;;;11.58;100.00
78198;BME280;67472;51.554;7.812;2023-03-23T12:26:19;99756.81;;;11.57;100.00
78198;BME280;67472;51.554;7.812;2023-03-23T12:43:57;99782.09;;;11.77;100.00
78198;BME280;67472;51.554;7.812;2023-03-23T12:47:05;99770.47;;;11.70;100.00
78198;BME280;67472;51.554;7.812;2023-03-23T12:50:05;99802.03;;;11.46;100.00
78198;BME280;67472;51.554;7.812;2023-03-23T12:52:58;99790.09;;;11.42;100.00
78198;BME280;67472;51.554;7.812;2023-03-23T12:55:49;99775.69;;;11.37;100.00
78198;BME280;67472;51.554;7.812;2023-03-23T12:58:44;99770.59;;;11.43;100.00
78198;BME280;67472;51.554;7.812;2023-03-23T13:01:35;99765.63;;;11.66;100.00
78198;BME280;67472;51.554;7.812;2023-03-23T13:04:27;99781.78;;;11.80;100.00
78198;BME280;67472;51.554;7.812;2023-03-23T13:07:21;99782.38;;;12.00;100.00
78198;BME280;67472;51.554;7.812;2023-03-23T13:10:21;99778.25;;;11.98;100.00
78198;BME280;67472;51.554;7.812;2023-03-23T13:13:13;99790.13;;;11.94;100.00
78198;BME280;67472;51.554;7.812;2023-03-23T13:19:28;99788.84;;;11.72;100.00
78198;BME280;67472;51.554;7.812;2023-03-23T13:22:20;99802.22;;;11.53;100.00
78198;BME280;67472;51.554;7.812;2023-03-23T13:25:19;99813.09;;;11.50;100.00
78198;BME280;67472;51.554;7.812;2023-03-23T13:28:04;99795.78;;;11.55;100.00
78198;BME280;67472;51.554;7.812;2023-03-23T13:30:57;99780.66;;;11.65;100.00
78198;BME280;67472;51.554;7.812;2023-03-23T13:33:49;99800.31;;;11.63;100.00
78198;BME280;67472;51.554;7.812;2023-03-23T13:36:40;99799.00;;;11.67;100.00
78198;BME280;67472;51.554;7.812;2023-03-23T13:48:04;99774.78;;;12.05;100.00
78198;BME280;67472;51.554;7.812;2023-03-23T13:53:46;99756.72;;;11.93;100.00
78198;BME280;67472;51.554;7.812;2023-03-23T13:57:00;99762.66;;;11.86;100.00
78198;BME280;67472;51.554;7.812;2023-03-23T13:59:48;99771.06;;;11.90;100.00
78198;BME280;67472;51.554;7.812;2023-03-23T14:02:41;99754.06;;;11.93;100.00
78198;BME280;67472;51.554;7.812;2023-03-23T14:11:24;99729.47;;;12.08;100.00
78198;BME280;67472;51.554;7.812;2023-03-23T14:14:20;99738.78;;;12.12;100.00
78198;BME280;67472;51.554;7.812;2023-03-23T14:17:19;99747.41;;;12.22;100.00
78198;BME280;67472;51.554;7.812;2023-03-23T14:20:06;99743.25;;;12.20;100.00
78198;BME280;67472;51.554;7.812;2023-03-23T14:22:57;99747.63;;;12.37;100.00
78198;BME280;67472;51.554;7.812;2023-03-23T14:25:43;99743.47;;;12.26;100.00
78198;BME280;67472;51.554;7.812;2023-03-23T14:28:29;99748.56;;;12.28;100.00
78198;BME280;67472;51.554;7.812;2023-03-23T14:34:19;99755.19;;;12.24;100.00
78198;BME280;67472;51.554;7.812;2023-03-23T14:37:11;99754.16;;;12.17;100.00
78198;BME280;67472;51.554;7.812;2023-03-23T14:39:58;99764.00;;;12.32;100.00
78198;BME280;67472;51.554;7.812;2023-03-23T14:42:44;99765.09;;;12.22;100.00
78198;BME280;67472;51.554;7.812;2023-03-23T14:45:31;99743.78;;;12.23;100.00
78198;BME280;67472;51.554;7.812;2023-03-23T14:48:16;99780.59;;;12.09;100.00
78198;BME280;67472;51.554;7.812;2023-03-23T14:51:04;99783.06;;;12.02;100.00
78198;BME280;67472;51.554;7.812;2023-03-23T14:53:52;99800.56;;;11.95;100.00
78198;BME280;67472;51.554;7.812;2023-03-23T14:56:37;99787.19;;;12.05;100.00
78198;BME280;67472;51.554;7.812;2023-03-23T14:59:24;99796.50;;;12.09;100.00
78198;BME280;67472;51.554;7.812;2023-03-23T15:02:33;99796.53;;;12.17;100.00
78198;BME280;67472;51.554;7.812;2023-03-23T15:05:32;99795.75;;;12.24;100.00
78198;BME280;67472;51.554;7.812;2023-03-23T15:08:25;99798.63;;;12.39;100.00
78198;BME280;67472;51.554;7.812;2023-03-23T15:14:07;99791.50;;;13.06;100.00
78198;BME280;67472;51.554;7.812;2023-03-23T15:16:54;99786.22;;;13.30;100.00
78198;BME280;67472;51.554;7.812;2023-03-23T15:19:43;99770.28;;;13.62;100.00
78198;BME280;67472;51.554;7.812;2023-03-23T15:22:29;99749.69;;;13.64;100.00
78198;BME280;67472;51.554;7.812;2023-03-23T15:25:28;99725.63;;;13.74;100.00
78198;BME280;67472;51.554;7.812;2023-03-23T15:28:20;99722.81;;;13.75;100.00
78198;BME280;67472;51.554;7.812;2023-03-23T15:31:06;99702.19;;;13.85;100.00
78198;BME280;67472;51.554;7.812;2023-03-23T15:33:55;99689.06;;;13.92;100.00
78198;BME280;67472;51.554;7.812;2023-03-23T15:36:41;99668.34;;;13.87;100.00
78198;BME280;67472;51.554;7.812;2023-03-23T15:39:29;99665.47;;;13.97;100.00
78198;BME280;67472;51.554;7.812;2023-03-23T15:48:03;99638.38;;;13.32;100.00
78198;BME280;67472;51.554;7.812;2023-03-23T15:50:50;99618.47;;;13.28;100.00
78198;BME280;67472;51.554;7.812;2023-03-23T15:53:37;99627.72;;;13.40;100.00
78198;BME280;67472;51.554;7.812;2023-03-23T15:56:23;99621.59;;;13.39;100.00
78198;BME280;67472;51.554;7.812;2023-03-23T15:59:09;99609.16;;;13.40;100.00
78198;BME280;67472;51.554;7.812;2023-03-23T16:01:56;99615.31;;;13.40;100.00
78198;BME280;67472;51.554;7.812;2023-03-23T16:04:41;99607.00;;;13.43;100.00
78198;BME280;67472;51.554;7.812;2023-03-23T16:07:26;99601.53;;;13.76;100.00
78198;BME280;67472;51.554;7.812;2023-03-23T16:10:16;99593.75;;;13.74;100.00
78198;BME280;67472;51.554;7.812;2023-03-23T16:13:02;99567.91;;;13.68;100.00
78198;BME280;67472;51.554;7.812;2023-03-23T16:15:49;99564.31;;;13.61;100.00
78198;BME280;67472;51.554;7.812;2023-03-23T16:18:35;99552.72;;;13.54;100.00
78198;BME280;67472;51.554;7.812;2023-03-23T16:21:20;99566.16;;;13.52;100.00
78198;BME280;67472;51.554;7.812;2023-03-23T16:24:07;99563.19;;;13.47;100.00
78198;BME280;67472;51.554;7.812;2023-03-23T16:26:52;99559.56;;;13.48;100.00
78198;BME280;67472;51.554;7.812;2023-03-23T16:29:37;99557.34;;;13.60;100.00
78198;BME280;67472;51.554;7.812;2023-03-23T16:32:22;99555.34;;;13.62;100.00
78198;BME280;67472;51.554;7.812;2023-03-23T16:35:08;99561.38;;;13.48;100.00
78198;BME280;67472;51.554;7.812;2023-03-23T16:37:55;99566.41;;;13.27;100.00
78198;BME280;67472;51.554;7.812;2023-03-23T16:40:42;99583.38;;;13.10;100.00
78198;BME280;67472;51.554;7.812;2023-03-23T16:43:27;99587.84;;;13.09;100.00
78198;BME280;67472;51.554;7.812;2023-03-23T16:46:12;99608.38;;;13.15;100.00
78198;BME280;67472;51.554;7.812;2023-03-23T16:48:57;99620.50;;;13.10;100.00
78198;BME280;67472;51.554;7.812;2023-03-23T16:51:42;99597.47;;;13.02;100.00